Time;durP1;ratioP1;P1;durP2;ratioP2;P2;SDS_P1;SDS_P2;PMS_P1;PMS_P2;Temp;Humidity;BMP_temperature;BMP_pressure;BME280_temperature;BME280_humidity;BME280_pressure;Samples;Min_cycle;Max_cycle;Signal;HPM_P1;HPM_P2
2021/07/10 00:01:29;;;;;;;9.50;8.70;;;16.30;99.90;;;;;;5055713;28;20205;-56
2021/07/10 00:03:56;;;;;;;10.70;9.57;;;15.80;99.90;;;;;;5052740;28;20181;-56
2021/07/10 00:06:22;;;;;;;9.60;8.80;;;16.10;99.90;;;;;;5064037;28;20497;-56
2021/07/10 00:08:48;;;;;;;10.27;9.27;;;16.10;99.90;;;;;;5058657;28;20485;-56
2021/07/10 00:11:13;;;;;;;11.90;10.67;;;16.10;99.90;;;;;;5059311;28;20439;-56
2021/07/10 00:13:39;;;;;;;10.90;9.90;;;16.20;99.90;;;;;;5062625;28;20177;-56
2021/07/10 00:16:05;;;;;;;10.10;9.20;;;16.30;99.90;;;;;;5060014;28;20181;-56
2021/07/10 00:18:31;;;;;;;10.45;9.43;;;15.80;99.90;;;;;;5064354;28;20208;-56
2021/07/10 00:20:57;;;;;;;9.67;8.67;;;16.00;99.90;;;;;;5064396;28;20610;-56
2021/07/10 00:23:22;;;;;;;9.20;8.40;;;15.90;99.90;;;;;;5052956;28;20180;-56
2021/07/10 00:25:48;;;;;;;12.80;9.87;;;15.80;99.90;;;;;;5057338;28;20212;-56
2021/07/10 00:28:14;;;;;;;10.87;9.87;;;15.80;99.90;;;;;;5056701;28;20181;-56
2021/07/10 00:30:40;;;;;;;9.93;8.90;;;15.70;99.90;;;;;;5057270;28;20185;-57
2021/07/10 00:33:05;;;;;;;12.57;9.70;;;15.90;99.90;;;;;;5054288;28;20677;-56
2021/07/10 00:35:31;;;;;;;9.60;8.80;;;16.10;99.90;;;;;;5052344;28;20190;-56
2021/07/10 00:37:57;;;;;;;10.10;9.30;;;16.10;99.90;;;;;;5062296;28;20272;-56
2021/07/10 00:40:22;;;;;;;10.03;9.13;;;16.00;99.90;;;;;;5064371;28;20470;-57
2021/07/10 00:42:48;;;;;;;11.13;9.87;;;15.80;99.90;;;;;;5064526;28;20181;-57
2021/07/10 00:45:15;;;;;;;9.17;8.47;;;15.90;99.90;;;;;;5060137;28;20253;-56
2021/07/10 00:47:41;;;;;;;9.55;8.65;;;15.60;99.90;;;;;;5062000;28;20649;-57
2021/07/10 00:50:20;;;;;;;10.15;9.15;;;15.60;99.90;;;;;;5064869;28;20204;-57
2021/07/10 00:52:46;;;;;;;10.48;9.50;;;15.90;99.90;;;;;;5059072;28;20208;-56
2021/07/10 00:55:14;;;;;;;9.97;9.07;;;16.00;99.90;;;;;;5056865;28;20281;-56
2021/07/10 00:57:43;;;;;;;10.82;10.02;;;15.90;99.90;;;;;;5056171;28;20177;-57
2021/07/10 01:00:12;;;;;;;8.77;7.97;;;15.70;99.90;;;;;;5057269;28;20689;-57
2021/07/10 01:02:40;;;;;;;9.98;9.18;;;15.60;99.90;;;;;;5062935;28;20571;-55
2021/07/10 01:05:09;;;;;;;10.48;9.57;;;15.80;99.90;;;;;;5064480;28;20634;-56
2021/07/10 01:07:34;;;;;;;10.30;9.40;;;15.40;99.90;;;;;;5063394;28;20204;-56
2021/07/10 01:10:02;;;;;;;9.97;8.97;;;15.50;99.90;;;;;;5055337;28;20674;-56
2021/07/10 01:12:30;;;;;;;9.93;9.02;;;15.20;99.90;;;;;;5059682;28;20180;-57
2021/07/10 01:14:56;;;;;;;10.43;9.48;;;15.80;99.90;;;;;;5056376;28;20188;-57
2021/07/10 01:17:22;;;;;;;10.13;9.23;;;15.50;99.90;;;;;;5060772;28;20263;-56
2021/07/10 01:20:01;;;;;;;11.53;9.53;;;15.30;99.90;;;;;;5055087;28;20301;-56
2021/07/10 01:22:27;;;;;;;10.60;9.70;;;15.50;99.90;;;;;;5055390;28;20177;-57
2021/07/10 01:24:53;;;;;;;10.00;8.97;;;15.60;99.90;;;;;;5064351;28;20333;-55
2021/07/10 01:27:19;;;;;;;9.45;8.55;;;15.30;99.90;;;;;;5062676;28;20435;-57
2021/07/10 01:29:47;;;;;;;8.90;8.10;;;15.50;99.90;;;;;;5060869;28;20215;-56
2021/07/10 01:32:17;;;;;;;9.50;8.60;;;15.40;99.90;;;;;;5057881;28;20185;-57
2021/07/10 01:34:46;;;;;;;10.13;9.23;;;15.50;99.90;;;;;;5057962;28;20189;-56
2021/07/10 01:37:15;;;;;;;10.45;9.50;;;15.40;99.90;;;;;;5063738;28;20188;-56
2021/07/10 01:39:42;;;;;;;10.10;9.20;;;15.10;99.90;;;;;;5065472;28;20261;-56
2021/07/10 01:42:08;;;;;;;10.25;9.25;;;14.90;99.90;;;;;;5061728;28;20187;-56
2021/07/10 01:44:34;;;;;;;9.75;8.80;;;15.50;99.90;;;;;;5070508;28;20276;-56
2021/07/10 01:46:59;;;;;;;10.65;9.10;;;15.30;99.90;;;;;;5064737;28;20177;-56
2021/07/10 01:49:25;;;;;;;9.20;8.40;;;15.00;99.90;;;;;;5064934;28;20212;-56
2021/07/10 01:51:50;;;;;;;13.60;8.50;;;15.40;99.90;;;;;;5057326;28;20185;-56
2021/07/10 01:54:16;;;;;;;9.90;8.93;;;15.10;99.90;;;;;;5067983;28;20552;-56
2021/07/10 01:56:42;;;;;;;10.83;9.73;;;15.00;99.90;;;;;;5069643;28;20214;-56
2021/07/10 01:59:08;;;;;;;10.17;9.20;;;15.10;99.90;;;;;;5060168;28;20219;-56
2021/07/10 02:01:33;;;;;;;14.73;9.90;;;15.00;99.90;;;;;;5069126;28;20463;-56
2021/07/10 02:04:00;;;;;;;9.90;9.00;;;15.30;99.90;;;;;;5068083;28;20597;-56
2021/07/10 02:06:26;;;;;;;9.93;9.02;;;14.80;99.90;;;;;;5068556;28;20599;-56
2021/07/10 02:08:52;;;;;;;9.85;8.98;;;15.20;99.90;;;;;;5058617;28;20225;-56
2021/07/10 02:11:18;;;;;;;10.15;9.25;;;15.30;99.90;;;;;;5067766;28;20184;-56
2021/07/10 02:13:44;;;;;;;9.57;8.67;;;14.80;99.90;;;;;;5071870;28;20184;-56
2021/07/10 02:16:11;;;;;;;10.57;9.47;;;14.80;99.90;;;;;;5061246;28;20493;-56
2021/07/10 02:18:37;;;;;;;10.18;9.18;;;14.90;99.90;;;;;;5060133;28;20537;-56
2021/07/10 02:21:03;;;;;;;10.00;9.10;;;14.90;99.90;;;;;;5066531;28;20304;-56
2021/07/10 02:23:29;;;;;;;10.20;9.40;;;14.90;99.90;;;;;;5058827;28;20454;-56
2021/07/10 02:25:55;;;;;;;9.57;8.77;;;14.70;99.90;;;;;;5057078;28;20185;-57
2021/07/10 02:28:20;;;;;;;10.67;9.77;;;14.90;99.90;;;;;;5068404;28;20177;-56
2021/07/10 02:30:46;;;;;;;13.53;9.80;;;14.90;99.90;;;;;;5068021;28;20549;-56
2021/07/10 02:33:12;;;;;;;12.30;9.80;;;14.60;99.90;;;;;;5057964;28;20646;-56
2021/07/10 02:35:37;;;;;;;10.20;9.40;;;14.50;99.90;;;;;;5059663;28;20452;-56
2021/07/10 02:38:05;;;;;;;10.30;9.40;;;14.60;99.90;;;;;;5065329;28;20177;-56
2021/07/10 02:40:31;;;;;;;9.70;8.85;;;14.60;99.90;;;;;;5060740;28;20316;-56
2021/07/10 02:42:57;;;;;;;10.20;9.20;;;14.60;99.90;;;;;;5067451;28;20220;-56
2021/07/10 02:45:23;;;;;;;9.88;9.05;;;14.60;99.90;;;;;;5060533;28;20626;-57
2021/07/10 02:47:49;;;;;;;10.30;9.40;;;14.50;99.90;;;;;;5060990;28;20177;-56
2021/07/10 02:50:20;;;;;;;10.50;9.57;;;14.70;99.90;;;;;;5054404;28;20246;-56
2021/07/10 02:52:46;;;;;;;9.57;8.80;;;14.60;99.90;;;;;;5062036;28;20271;-56
2021/07/10 02:55:12;;;;;;;8.73;8.02;;;14.70;99.90;;;;;;5058777;28;20209;-56
2021/07/10 02:57:38;;;;;;;9.75;8.90;;;14.70;99.90;;;;;;5057249;28;20193;-56
2021/07/10 03:00:17;;;;;;;9.90;9.05;;;14.50;99.90;;;;;;5067767;28;20239;-56
2021/07/10 03:02:44;;;;;;;11.80;10.15;;;14.70;99.90;;;;;;5059086;28;20188;-56
2021/07/10 03:05:10;;;;;;;9.57;8.65;;;14.90;99.90;;;;;;5059668;28;20177;-56
2021/07/10 03:07:37;;;;;;;10.48;9.45;;;14.60;99.90;;;;;;5065936;28;20298;-56
2021/07/10 03:10:05;;;;;;;10.45;9.55;;;14.70;99.90;;;;;;5063919;28;20205;-56
2021/07/10 03:12:31;;;;;;;10.50;9.60;;;14.70;99.90;;;;;;5067630;28;20203;-56
2021/07/10 03:14:56;;;;;;;11.70;9.27;;;14.30;99.90;;;;;;5065050;28;20635;-56
2021/07/10 03:17:22;;;;;;;9.80;9.00;;;14.40;99.90;;;;;;5057934;28;20189;-56
2021/07/10 03:19:47;;;;;;;9.70;8.80;;;14.50;99.90;;;;;;5062077;28;20209;-56
2021/07/10 03:22:13;;;;;;;10.10;9.10;;;14.30;99.90;;;;;;5052821;28;20177;-56
2021/07/10 03:24:45;;;;;;;10.00;9.10;;;14.30;99.90;;;;;;5061327;28;20595;-56
2021/07/10 03:27:10;;;;;;;9.85;9.00;;;14.50;99.90;;;;;;5065498;28;20361;-57
2021/07/10 03:29:36;;;;;;;10.50;9.60;;;14.40;99.90;;;;;;5058215;28;20212;-56
2021/07/10 03:32:03;;;;;;;9.35;8.52;;;14.30;99.90;;;;;;5059672;28;20193;-56
2021/07/10 03:34:28;;;;;;;10.00;9.20;;;14.20;99.90;;;;;;5056004;28;20673;-56
2021/07/10 03:36:54;;;;;;;9.10;8.30;;;14.10;99.90;;;;;;5054816;28;20177;-57
2021/07/10 03:39:21;;;;;;;10.10;9.17;;;14.30;99.90;;;;;;5062402;28;20227;-56
2021/07/10 03:41:47;;;;;;;10.35;9.20;;;14.30;99.90;;;;;;5050637;28;20296;-57
2021/07/10 03:44:13;;;;;;;9.83;8.93;;;14.60;99.90;;;;;;5060453;28;20620;-56
2021/07/10 03:46:38;;;;;;;10.80;8.33;;;14.30;99.90;;;;;;5058301;28;20509;-56
2021/07/10 03:49:04;;;;;;;8.80;7.90;;;14.50;99.90;;;;;;5056341;28;20240;-55
2021/07/10 03:51:30;;;;;;;9.63;8.73;;;14.30;99.90;;;;;;5064332;28;20271;-57
2021/07/10 03:53:55;;;;;;;8.77;8.07;;;14.40;99.90;;;;;;5065085;28;20185;-56
2021/07/10 03:56:21;;;;;;;9.27;8.47;;;14.20;99.90;;;;;;5062211;28;20185;-56
2021/07/10 03:58:47;;;;;;;10.10;9.18;;;14.30;99.90;;;;;;5056097;28;20209;-57
2021/07/10 04:01:13;;;;;;;9.67;8.80;;;14.30;99.90;;;;;;5063344;28;20284;-55
2021/07/10 04:03:39;;;;;;;9.43;8.53;;;14.50;99.90;;;;;;5065332;28;20293;-56
2021/07/10 04:06:04;;;;;;;9.97;9.07;;;14.50;99.90;;;;;;5061127;28;20602;-56
2021/07/10 04:08:30;;;;;;;11.17;10.10;;;14.20;99.90;;;;;;5057409;28;20232;-57
2021/07/10 04:10:55;;;;;;;10.40;9.40;;;14.20;99.90;;;;;;5071111;28;20204;-57
2021/07/10 04:13:21;;;;;;;10.87;9.90;;;14.50;99.90;;;;;;5055530;28;20527;-56
2021/07/10 04:15:47;;;;;;;10.07;9.17;;;14.30;99.90;;;;;;5053786;28;20605;-60
2021/07/10 04:18:12;;;;;;;10.70;9.80;;;14.30;99.90;;;;;;5057650;28;20220;-62
2021/07/10 04:20:38;;;;;;;9.53;8.73;;;14.10;99.90;;;;;;5049606;28;20216;-63
2021/07/10 04:23:05;;;;;;;10.73;9.73;;;14.20;99.90;;;;;;5065197;28;20626;-62
2021/07/10 04:25:32;;;;;;;11.00;10.10;;;14.10;99.90;;;;;;5050054;28;20181;-63
2021/07/10 04:27:57;;;;;;;9.75;8.95;;;14.30;99.90;;;;;;5058754;28;20281;-63
2021/07/10 04:30:23;;;;;;;9.60;8.70;;;14.10;99.90;;;;;;5051372;28;20717;-63
2021/07/10 04:32:50;;;;;;;9.70;8.80;;;14.30;99.90;;;;;;5055076;28;22225;-62
2021/07/10 04:35:17;;;;;;;10.13;9.23;;;14.00;99.90;;;;;;5058784;28;20222;-64
2021/07/10 04:37:42;;;;;;;10.48;9.57;;;14.30;99.90;;;;;;5056768;28;20261;-60
2021/07/10 04:40:09;;;;;;;9.87;9.07;;;14.50;99.90;;;;;;5054304;28;20248;-60
2021/07/10 04:42:35;;;;;;;9.98;9.15;;;14.50;99.90;;;;;;5054660;28;20234;-60
2021/07/10 04:45:01;;;;;;;11.10;10.10;;;14.40;99.90;;;;;;5054534;28;20174;-59
2021/07/10 04:47:27;;;;;;;10.10;9.23;;;14.40;99.90;;;;;;5050947;28;20597;-61
2021/07/10 04:49:52;;;;;;;11.77;10.60;;;14.70;99.90;;;;;;5052783;28;20575;-60
2021/07/10 04:52:18;;;;;;;10.83;9.83;;;14.50;99.90;;;;;;5056380;28;20221;-60
2021/07/10 04:54:43;;;;;;;10.80;9.80;;;14.60;99.90;;;;;;5053505;28;20189;-61
2021/07/10 04:57:09;;;;;;;11.57;10.57;;;14.60;99.90;;;;;;5054986;28;20276;-61
2021/07/10 04:59:35;;;;;;;12.45;11.25;;;14.60;99.90;;;;;;5054195;28;20235;-60
2021/07/10 05:02:01;;;;;;;10.97;10.00;;;14.70;99.90;;;;;;5052387;28;20236;-60
2021/07/10 05:04:27;;;;;;;11.30;10.40;;;14.70;99.90;;;;;;5060953;28;20272;-59
2021/07/10 05:06:52;;;;;;;12.37;11.27;;;14.70;99.90;;;;;;5061167;28;20435;-57
2021/07/10 05:09:19;;;;;;;10.80;9.90;;;15.00;99.90;;;;;;5055755;28;20217;-61
2021/07/10 05:11:46;;;;;;;11.23;10.23;;;15.00;99.90;;;;;;5055535;28;20192;-60
2021/07/10 05:14:12;;;;;;;11.68;10.68;;;15.30;99.90;;;;;;5063715;28;20181;-60
2021/07/10 05:16:37;;;;;;;11.10;10.10;;;15.40;99.90;;;;;;5057877;28;20177;-59
2021/07/10 05:19:05;;;;;;;12.00;10.73;;;15.60;99.90;;;;;;5057051;28;20773;-61
2021/07/10 05:21:31;;;;;;;11.43;10.32;;;15.40;99.90;;;;;;5062929;28;20295;-61
2021/07/10 05:23:57;;;;;;;11.82;10.82;;;15.70;99.90;;;;;;5054147;28;20678;-59
2021/07/10 05:26:23;;;;;;;11.20;10.20;;;15.60;99.90;;;;;;5058808;28;20176;-57
2021/07/10 05:28:48;;;;;;;10.73;9.82;;;15.60;99.90;;;;;;5063907;28;20209;-56
2021/07/10 05:31:14;;;;;;;11.70;10.70;;;15.90;99.90;;;;;;5056885;28;20260;-56
2021/07/10 05:33:42;;;;;;;11.70;10.50;;;16.00;99.90;;;;;;5063078;28;20201;-56
2021/07/10 05:36:07;;;;;;;12.25;11.02;;;16.00;99.90;;;;;;5062859;28;20189;-57
2021/07/10 05:38:33;;;;;;;14.60;10.20;;;16.50;99.90;;;;;;5062410;28;20590;-57
2021/07/10 05:40:59;;;;;;;9.87;8.97;;;16.50;99.90;;;;;;5063825;28;20274;-58
2021/07/10 05:43:25;;;;;;;10.88;9.85;;;16.40;99.90;;;;;;5061209;28;20183;-58
2021/07/10 05:45:51;;;;;;;10.32;9.52;;;16.70;99.90;;;;;;5058787;28;20193;-56
2021/07/10 05:48:18;;;;;;;11.30;10.30;;;16.60;99.90;;;;;;5057242;28;20177;-56
2021/07/10 05:50:43;;;;;;;9.40;8.65;;;16.70;99.90;;;;;;5059922;28;20446;-56
2021/07/10 05:53:09;;;;;;;9.80;8.87;;;16.70;99.90;;;;;;5054388;28;20197;-57
2021/07/10 05:55:35;;;;;;;9.97;9.17;;;17.00;99.90;;;;;;5056658;28;20647;-58
2021/07/10 05:58:01;;;;;;;9.80;9.00;;;17.20;99.90;;;;;;5059023;28;20196;-56
2021/07/10 06:00:30;;;;;;;9.88;9.00;;;17.20;99.90;;;;;;5059650;28;20304;-57
2021/07/10 06:02:56;;;;;;;11.25;10.20;;;17.30;99.90;;;;;;5057838;28;20176;-57
2021/07/10 06:05:21;;;;;;;10.20;9.30;;;17.40;99.90;;;;;;5058806;28;20197;-56
2021/07/10 06:07:47;;;;;;;9.97;9.03;;;17.80;99.90;;;;;;5055215;28;20500;-57
2021/07/10 06:10:14;;;;;;;9.10;8.30;;;17.70;99.90;;;;;;5055662;28;20216;-58
2021/07/10 06:12:41;;;;;;;9.27;8.48;;;17.90;99.90;;;;;;5058506;28;20453;-58
2021/07/10 06:15:09;;;;;;;9.05;8.15;;;18.10;99.90;;;;;;5056692;28;20280;-58
2021/07/10 06:17:34;;;;;;;9.40;8.60;;;18.30;99.90;;;;;;5058519;28;20207;-58
2021/07/10 06:20:01;;;;;;;9.60;8.70;;;18.40;99.90;;;;;;5058680;28;20682;-59
2021/07/10 06:22:26;;;;;;;8.82;8.00;;;18.50;99.90;;;;;;5052830;28;20196;-57
2021/07/10 06:24:52;;;;;;;8.20;7.50;;;18.60;99.90;;;;;;5056284;28;20184;-57
2021/07/10 06:27:18;;;;;;;10.17;9.10;;;18.70;99.90;;;;;;5053352;28;20203;-58
2021/07/10 06:29:44;;;;;;;8.10;7.40;;;18.80;99.90;;;;;;5055046;28;20208;-57
2021/07/10 06:32:11;;;;;;;9.05;8.35;;;18.90;99.90;;;;;;5049780;28;20210;-57
2021/07/10 06:34:37;;;;;;;9.52;8.65;;;19.00;99.90;;;;;;5057484;28;20654;-57
2021/07/10 06:37:06;;;;;;;8.52;7.88;;;18.90;99.90;;;;;;5067178;28;20181;-57
2021/07/10 06:39:32;;;;;;;9.10;7.88;;;19.10;99.90;;;;;;5054843;28;20661;-56
2021/07/10 06:41:58;;;;;;;8.07;7.40;;;19.10;99.90;;;;;;5069365;28;20575;-56
2021/07/10 06:44:24;;;;;;;10.90;8.40;;;19.30;99.90;;;;;;5067022;28;20192;-59
2021/07/10 06:46:49;;;;;;;7.80;7.10;;;19.50;99.90;;;;;;5052729;28;20531;-58
2021/07/10 06:49:15;;;;;;;7.77;7.10;;;19.70;99.90;;;;;;5063702;28;20556;-57
2021/07/10 06:51:42;;;;;;;7.90;7.20;;;20.10;99.90;;;;;;5062265;28;20184;-57
2021/07/10 06:54:08;;;;;;;6.30;5.80;;;20.60;99.90;;;;;;5054570;28;20184;-57
2021/07/10 06:56:34;;;;;;;5.68;5.07;;;20.90;99.90;;;;;;5053498;28;20189;-58
2021/07/10 06:59:00;;;;;;;5.67;5.30;;;21.10;99.90;;;;;;5054089;28;20212;-58
2021/07/10 07:01:27;;;;;;;6.10;5.60;;;21.30;99.90;;;;;;5058045;28;20471;-57
2021/07/10 07:03:53;;;;;;;5.85;5.45;;;21.50;99.90;;;;;;5055613;28;22096;-57
2021/07/10 07:06:19;;;;;;;5.00;4.60;;;21.60;99.90;;;;;;5059172;28;20192;-58
2021/07/10 07:08:45;;;;;;;5.87;5.47;;;22.60;99.90;;;;;;5060090;28;20201;-57
2021/07/10 07:11:11;;;;;;;5.10;4.70;;;24.10;97.20;;;;;;5055232;28;20466;-58
2021/07/10 07:13:37;;;;;;;4.57;4.17;;;25.80;94.20;;;;;;5054860;28;20644;-57
2021/07/10 07:16:03;;;;;;;4.30;4.00;;;27.70;86.50;;;;;;5061176;28;20459;-59
2021/07/10 07:18:29;;;;;;;4.40;4.10;;;29.00;80.40;;;;;;5061335;28;20189;-59
2021/07/10 07:20:54;;;;;;;4.00;3.70;;;30.50;72.10;;;;;;5066080;28;20474;-58
2021/07/10 07:23:20;;;;;;;4.47;4.17;;;31.20;68.00;;;;;;5062867;28;20191;-59
2021/07/10 07:25:46;;;;;;;4.70;4.40;;;31.90;64.00;;;;;;5060405;28;20326;-59
2021/07/10 07:28:12;;;;;;;4.20;3.90;;;31.30;62.70;;;;;;5058316;28;20177;-58
2021/07/10 07:34:00;;;;;;;4.33;4.03;;;31.70;63.70;;;;;;5055857;28;20203;-58
2021/07/10 07:36:25;;;;;;;4.37;4.07;;;33.00;59.10;;;;;;5066670;28;20956;-59
2021/07/10 07:38:51;;;;;;;3.80;3.60;;;32.20;59.70;;;;;;5063123;28;20308;-59
2021/07/10 07:41:18;;;;;;;3.83;3.53;;;33.60;59.00;;;;;;5057879;28;20197;-58
2021/07/10 07:43:44;;;;;;;3.80;3.50;;;34.80;55.30;;;;;;5064372;28;20185;-58
2021/07/10 07:46:12;;;;;;;3.93;3.57;;;33.90;54.70;;;;;;5055634;28;20898;-58
2021/07/10 07:48:37;;;;;;;4.17;3.90;;;35.70;52.70;;;;;;5052298;28;20731;-58
2021/07/10 07:51:03;;;;;;;4.10;3.90;;;36.70;50.60;;;;;;5058092;28;20448;-55
2021/07/10 07:53:29;;;;;;;4.30;4.00;;;37.50;47.30;;;;;;5055067;28;20239;-55
2021/07/10 07:55:55;;;;;;;4.33;4.00;;;36.60;48.30;;;;;;5053170;28;20197;-57
2021/07/10 07:58:21;;;;;;;4.10;3.90;;;36.30;48.80;;;;;;5052670;28;20220;-57
2021/07/10 08:00:47;;;;;;;3.60;3.40;;;36.00;49.20;;;;;;5054268;28;21139;-56
2021/07/10 08:03:12;;;;;;;4.50;4.20;;;36.20;49.50;;;;;;5049024;28;20216;-56
2021/07/10 08:05:38;;;;;;;4.27;3.97;;;34.50;52.00;;;;;;5051550;28;20185;-56
2021/07/10 08:08:04;;;;;;;3.60;3.30;;;34.40;50.80;;;;;;5052709;28;20220;-55
2021/07/10 08:10:30;;;;;;;4.00;3.70;;;35.20;49.30;;;;;;5058178;28;20587;-55
2021/07/10 08:12:55;;;;;;;3.60;3.40;;;35.70;48.10;;;;;;5053979;28;20527;-54
2021/07/10 08:15:23;;;;;;;3.50;3.20;;;35.90;47.00;;;;;;5053503;28;20192;-55
2021/07/10 08:17:52;;;;;;;4.57;4.17;;;35.90;46.40;;;;;;5051182;28;20202;-57
2021/07/10 08:20:19;;;;;;;4.33;4.03;;;36.00;46.50;;;;;;5055888;28;21002;-57
2021/07/10 08:22:45;;;;;;;3.20;3.00;;;35.90;46.20;;;;;;5057155;28;20442;-55
2021/07/10 08:25:12;;;;;;;3.73;3.50;;;35.90;45.60;;;;;;5053665;28;20453;-56
2021/07/10 08:27:42;;;;;;;3.77;3.47;;;34.50;46.60;;;;;;5053409;28;20894;-57
2021/07/10 08:30:09;;;;;;;4.00;3.70;;;33.80;49.20;;;;;;5049068;28;20487;-57
2021/07/10 08:32:36;;;;;;;3.60;3.40;;;33.10;49.80;;;;;;5056435;28;20497;-56
2021/07/10 08:35:03;;;;;;;3.97;3.67;;;33.50;50.70;;;;;;5055238;28;20459;-56
2021/07/10 08:37:29;;;;;;;4.13;3.83;;;33.70;49.70;;;;;;5055715;28;20590;-56
2021/07/10 08:39:55;;;;;;;4.20;3.80;;;34.90;48.40;;;;;;5052050;28;20490;-56
2021/07/10 08:42:20;;;;;;;4.20;4.00;;;34.90;47.90;;;;;;5056738;28;20682;-56
2021/07/10 08:44:51;;;;;;;3.90;3.50;;;34.70;48.30;;;;;;5053491;28;20181;-56
2021/07/10 08:47:17;;;;;;;3.70;3.50;;;34.50;47.80;;;;;;5059783;28;20588;-56
2021/07/10 08:49:43;;;;;;;4.00;3.70;;;33.90;49.60;;;;;;5052938;28;20460;-56
2021/07/10 08:52:10;;;;;;;3.50;3.30;;;34.50;48.40;;;;;;5052164;28;20443;-56
2021/07/10 08:54:36;;;;;;;3.57;3.27;;;34.90;47.70;;;;;;5055176;28;20443;-57
2021/07/10 08:57:03;;;;;;;3.90;3.60;;;35.00;47.40;;;;;;5053493;28;20922;-56
2021/07/10 08:59:28;;;;;;;3.73;3.50;;;34.70;47.50;;;;;;5056769;28;20489;-56
2021/07/10 09:01:54;;;;;;;3.90;3.60;;;35.50;46.80;;;;;;5054276;28;20983;-56
2021/07/10 09:04:23;;;;;;;4.13;3.73;;;35.30;46.30;;;;;;5054672;28;20970;-55
2021/07/10 09:06:53;;;;;;;4.03;3.70;;;35.50;45.40;;;;;;5058505;28;20643;-57
2021/07/10 09:09:18;;;;;;;4.20;4.00;;;36.20;44.60;;;;;;5051256;28;20458;-57
2021/07/10 09:12:01;;;;;;;3.90;3.70;;;36.00;45.20;;;;;;5054826;28;20439;-58
2021/07/10 09:14:32;;;;;;;5.10;4.00;;;36.20;45.90;;;;;;5049175;28;20208;-57
2021/07/10 09:17:43;;;;;;;4.43;4.10;;;35.50;44.40;;;;;;5050913;28;20440;-57
2021/07/10 09:20:20;;;;;;;5.60;5.10;;;35.40;46.30;;;;;;4970540;28;20533;-57
2021/07/10 09:22:45;;;;;;;4.43;4.03;;;35.60;46.50;;;;;;5049570;28;20525;-56
2021/07/10 09:25:25;;;;;;;4.30;4.00;;;35.20;45.70;;;;;;5061565;28;20536;-56
2021/07/10 09:27:52;;;;;;;3.57;3.37;;;34.70;47.10;;;;;;5061720;28;20214;-57
2021/07/10 09:30:30;;;;;;;5.77;3.73;;;34.80;46.50;;;;;;5064193;28;20461;-56
2021/07/10 09:33:14;;;;;;;4.13;3.83;;;34.30;47.50;;;;;;5062645;28;20440;-55
2021/07/10 09:35:52;;;;;;;3.90;3.60;;;34.60;48.10;;;;;;5054956;28;20459;-57
2021/07/10 09:38:21;;;;;;;4.20;3.80;;;35.80;45.70;;;;;;5054406;28;21045;-55
2021/07/10 09:41:22;;;;;;;4.00;3.70;;;36.70;43.80;;;;;;5054550;28;20936;-56
2021/07/10 09:43:48;;;;;;;5.17;3.80;;;35.80;44.10;;;;;;5032724;28;20435;-58
2021/07/10 09:46:25;;;;;;;3.47;3.27;;;36.40;43.80;;;;;;5054666;28;20440;-57
2021/07/10 09:48:50;;;;;;;4.30;4.00;;;36.20;43.90;;;;;;5051776;28;20299;-56
2021/07/10 09:51:20;;;;;;;4.57;4.17;;;35.50;45.30;;;;;;5049857;28;20530;-56
2021/07/10 09:53:59;;;;;;;4.60;4.30;;;35.20;45.90;;;;;;5056439;28;20284;-57
2021/07/10 09:56:25;;;;;;;4.00;3.80;;;35.40;45.60;;;;;;5070684;28;20438;-57
2021/07/10 09:58:51;;;;;;;4.13;3.73;;;35.40;45.10;;;;;;5059268;28;20498;-56
2021/07/10 10:01:48;;;;;;;4.00;3.70;;;35.20;45.60;;;;;;5055875;28;21296;-57
2021/07/10 10:04:29;;;;;;;5.70;5.23;;;35.60;45.80;;;;;;5043014;28;20204;-57
2021/07/10 10:06:56;;;;;;;5.37;4.97;;;35.40;45.90;;;;;;5060899;28;20458;-57
2021/07/10 10:09:25;;;;;;;4.30;4.00;;;36.00;44.90;;;;;;5059056;28;20454;-57
2021/07/10 10:12:04;;;;;;;3.53;3.33;;;35.80;44.80;;;;;;5058361;28;20968;-57
2021/07/10 10:14:32;;;;;;;4.00;3.60;;;36.30;43.60;;;;;;5058877;28;20444;-56
2021/07/10 10:16:59;;;;;;;3.30;3.00;;;37.10;42.10;;;;;;5055654;28;20829;-57
2021/07/10 10:19:32;;;;;;;4.37;3.97;;;37.30;42.00;;;;;;5052951;28;20467;-57
2021/07/10 10:22:01;;;;;;;3.37;3.13;;;37.30;41.20;;;;;;5060491;28;20502;-58
2021/07/10 10:24:28;;;;;;;3.77;3.57;;;37.30;41.90;;;;;;5056027;28;20526;-57
2021/07/10 10:26:54;;;;;;;3.10;3.00;;;36.40;41.90;;;;;;5053634;28;20475;-57
2021/07/10 10:29:24;;;;;;;3.50;3.30;;;37.50;41.10;;;;;;5054154;28;20955;-57
2021/07/10 10:31:52;;;;;;;3.30;3.10;;;38.00;40.30;;;;;;5057523;28;20439;-55
2021/07/10 10:34:18;;;;;;;3.50;3.30;;;37.60;39.40;;;;;;5056494;28;20489;-56
2021/07/10 10:36:46;;;;;;;2.83;2.73;;;37.70;39.50;;;;;;5051045;28;20440;-56
2021/07/10 10:39:15;;;;;;;3.27;3.03;;;36.70;39.90;;;;;;5059521;28;20980;-55
2021/07/10 10:41:44;;;;;;;3.03;2.83;;;35.90;41.10;;;;;;5056574;28;20541;-56
2021/07/10 10:44:11;;;;;;;3.40;3.20;;;35.70;41.50;;;;;;5057263;28;20458;-56
2021/07/10 10:46:55;;;;;;;3.07;2.87;;;36.10;40.90;;;;;;5061597;28;20450;-56
2021/07/10 10:49:44;;;;;;;3.07;2.87;;;36.20;40.50;;;;;;5057581;28;20940;-56
2021/07/10 10:52:29;;;;;;;3.00;2.80;;;35.50;40.20;;;;;;5054718;28;20455;-57
2021/07/10 10:55:14;;;;;;;2.83;2.63;;;36.30;40.40;;;;;;5054490;28;20514;-60
2021/07/10 10:57:47;;;;;;;2.70;2.50;;;36.10;39.90;;;;;;5057234;28;20950;-57
2021/07/10 11:00:17;;;;;;;3.37;3.07;;;36.20;40.20;;;;;;5055065;28;20506;-57
2021/07/10 11:03:10;;;;;;;2.53;2.43;;;36.20;40.10;;;;;;5060953;28;20447;-59
2021/07/10 11:05:54;;;;;;;3.10;2.83;;;36.10;39.70;;;;;;5053807;28;20523;-57
2021/07/10 11:08:51;;;;;;;3.23;2.97;;;36.00;39.40;;;;;;5062336;28;20458;-57
2021/07/10 11:11:19;;;;;;;3.00;2.80;;;35.70;40.30;;;;;;5040025;28;20953;-57
2021/07/10 11:14:07;;;;;;;3.20;3.00;;;35.30;40.60;;;;;;5054828;28;20443;-58
2021/07/10 11:16:33;;;;;;;2.97;2.57;;;35.30;40.70;;;;;;5063307;28;20446;-57
2021/07/10 11:19:07;;;;;;;3.37;3.07;;;34.90;40.50;;;;;;5053413;28;21111;-60
2021/07/10 11:21:44;;;;;;;3.83;2.87;;;35.10;39.70;;;;;;5052515;28;20463;-57
2021/07/10 11:24:16;;;;;;;2.83;2.70;;;34.90;41.60;;;;;;5066431;28;20457;-57
2021/07/10 11:26:43;;;;;;;3.00;2.80;;;34.40;41.90;;;;;;5063109;28;20526;-57
2021/07/10 11:29:40;;;;;;;3.00;2.80;;;34.20;42.70;;;;;;5058445;28;21026;-56
2021/07/10 11:32:12;;;;;;;2.93;2.73;;;34.70;42.70;;;;;;5049928;28;20550;-59
2021/07/10 11:34:43;;;;;;;2.90;2.70;;;35.00;41.30;;;;;;5055244;28;20955;-57
2021/07/10 11:37:22;;;;;;;3.63;3.20;;;34.80;41.60;;;;;;5062651;28;20435;-57
2021/07/10 11:40:03;;;;;;;3.23;3.03;;;34.10;42.40;;;;;;5061542;28;20454;-60
2021/07/10 11:42:32;;;;;;;3.17;2.97;;;33.70;42.80;;;;;;5054937;28;20451;-58
2021/07/10 11:45:11;;;;;;;3.30;3.10;;;33.90;43.70;;;;;;5066338;28;20488;-57
2021/07/10 11:47:48;;;;;;;3.73;3.47;;;33.60;43.50;;;;;;5060524;28;20978;-58
2021/07/10 11:50:21;;;;;;;3.20;3.00;;;32.60;45.50;;;;;;5060685;28;20911;-56
2021/07/10 11:53:16;;;;;;;3.43;3.23;;;32.20;46.40;;;;;;5060152;28;20942;-57
2021/07/10 11:55:44;;;;;;;3.90;3.60;;;31.70;46.80;;;;;;5037647;28;20527;-57
2021/07/10 11:58:14;;;;;;;3.33;3.13;;;30.70;49.30;;;;;;5053748;28;20816;-56
2021/07/10 12:00:40;;;;;;;3.77;3.47;;;30.00;51.10;;;;;;5054035;28;20997;-58
2021/07/10 12:03:19;;;;;;;4.17;3.90;;;29.40;52.00;;;;;;5059578;28;20450;-56
2021/07/10 12:05:46;;;;;;;3.40;3.07;;;29.10;53.10;;;;;;5059763;28;20995;-58
2021/07/10 12:08:12;;;;;;;3.67;3.47;;;28.70;53.30;;;;;;5057169;28;20436;-57
2021/07/10 12:10:40;;;;;;;3.77;3.47;;;28.70;54.60;;;;;;5060994;28;20528;-58
2021/07/10 12:13:15;;;;;;;4.33;3.50;;;28.70;54.20;;;;;;5057613;28;20194;-58
2021/07/10 12:15:53;;;;;;;3.90;3.70;;;28.70;54.60;;;;;;5051388;28;20788;-56
2021/07/10 12:18:22;;;;;;;3.50;3.30;;;28.70;54.60;;;;;;5064898;28;20443;-56
2021/07/10 12:20:55;;;;;;;3.80;3.50;;;28.50;54.60;;;;;;5054856;28;20634;-56
2021/07/10 12:23:33;;;;;;;3.80;3.50;;;28.20;54.60;;;;;;5055852;28;20461;-58
2021/07/10 12:25:59;;;;;;;5.00;4.50;;;28.10;56.10;;;;;;5055981;28;20563;-56
2021/07/10 12:28:54;;;;;;;4.40;4.10;;;27.90;56.00;;;;;;5061135;28;20443;-58
2021/07/10 12:31:29;;;;;;;4.30;4.00;;;27.70;56.80;;;;;;5052948;28;20237;-58
2021/07/10 12:34:00;;;;;;;4.37;4.07;;;27.60;57.30;;;;;;5056963;28;20456;-58
2021/07/10 12:36:37;;;;;;;3.50;3.30;;;27.60;57.70;;;;;;5061130;28;20496;-56
2021/07/10 12:39:11;;;;;;;4.63;4.20;;;27.30;58.80;;;;;;5057887;28;20454;-57
2021/07/10 12:41:44;;;;;;;4.20;3.90;;;27.30;58.80;;;;;;5056489;28;20466;-58
2021/07/10 12:44:13;;;;;;;3.83;3.50;;;27.40;59.10;;;;;;5063514;28;21011;-59
2021/07/10 12:46:50;;;;;;;3.60;3.30;;;27.50;58.60;;;;;;5064036;28;20646;-58
2021/07/10 12:49:19;;;;;;;4.07;3.77;;;27.60;58.00;;;;;;5049054;28;20486;-58
2021/07/10 12:51:45;;;;;;;4.20;3.90;;;27.60;58.60;;;;;;5053556;28;20501;-59
2021/07/10 12:54:26;;;;;;;3.77;3.47;;;27.80;58.30;;;;;;5057656;28;20434;-58